sensor_id;sensor_type;location;lat;lon;timestamp;P1;durP1;ratioP1;P2;durP2;ratioP2
22679;SDS011;11507;44.858;10.374;2022-09-09T00:03:40;30.13;;;19.70;;
22679;SDS011;11507;44.858;10.374;2022-09-09T00:09:00;22.52;;;16.30;;
22679;SDS011;11507;44.858;10.374;2022-09-09T00:17:12;29.27;;;18.25;;
22679;SDS011;11507;44.858;10.374;2022-09-09T00:20:32;32.53;;;20.95;;
22679;SDS011;11507;44.858;10.374;2022-09-09T00:22:45;26.75;;;17.10;;
22679;SDS011;11507;44.858;10.374;2022-09-09T00:25:28;29.00;;;19.43;;
22679;SDS011;11507;44.858;10.374;2022-09-09T00:27:59;29.83;;;20.70;;
22679;SDS011;11507;44.858;10.374;2022-09-09T00:30:26;28.70;;;20.80;;
22679;SDS011;11507;44.858;10.374;2022-09-09T00:33:00;25.77;;;18.90;;
22679;SDS011;11507;44.858;10.374;2022-09-09T00:35:37;25.63;;;19.50;;
22679;SDS011;11507;44.858;10.374;2022-09-09T00:38:11;34.30;;;22.35;;
22679;SDS011;11507;44.858;10.374;2022-09-09T00:43:36;34.80;;;22.15;;
22679;SDS011;11507;44.858;10.374;2022-09-09T00:59:58;24.80;;;17.80;;
22679;SDS011;11507;44.858;10.374;2022-09-09T01:02:56;35.78;;;25.02;;
22679;SDS011;11507;44.858;10.374;2022-09-09T01:05:45;38.75;;;26.45;;
22679;SDS011;11507;44.858;10.374;2022-09-09T01:08:28;38.55;;;26.75;;
22679;SDS011;11507;44.858;10.374;2022-09-09T01:11:04;30.77;;;20.83;;
22679;SDS011;11507;44.858;10.374;2022-09-09T01:13:33;28.20;;;19.92;;
22679;SDS011;11507;44.858;10.374;2022-09-09T01:16:08;31.80;;;23.75;;
22679;SDS011;11507;44.858;10.374;2022-09-09T01:18:43;35.38;;;24.15;;
22679;SDS011;11507;44.858;10.374;2022-09-09T01:27:16;23.40;;;17.75;;
22679;SDS011;11507;44.858;10.374;2022-09-09T01:29:45;28.00;;;18.15;;
22679;SDS011;11507;44.858;10.374;2022-09-09T01:37:52;29.02;;;20.33;;
22679;SDS011;11507;44.858;10.374;2022-09-09T01:40:18;30.17;;;21.80;;
22679;SDS011;11507;44.858;10.374;2022-09-09T01:42:47;30.13;;;20.95;;
22679;SDS011;11507;44.858;10.374;2022-09-09T01:45:14;27.48;;;20.60;;
22679;SDS011;11507;44.858;10.374;2022-09-09T01:47:41;28.42;;;21.67;;
22679;SDS011;11507;44.858;10.374;2022-09-09T01:50:25;28.02;;;19.45;;
22679;SDS011;11507;44.858;10.374;2022-09-09T01:52:53;30.92;;;20.90;;
22679;SDS011;11507;44.858;10.374;2022-09-09T01:55:33;32.72;;;22.58;;
22679;SDS011;11507;44.858;10.374;2022-09-09T02:01:18;28.80;;;19.77;;
22679;SDS011;11507;44.858;10.374;2022-09-09T02:03:53;27.38;;;19.40;;
22679;SDS011;11507;44.858;10.374;2022-09-09T02:06:27;25.02;;;18.63;;
22679;SDS011;11507;44.858;10.374;2022-09-09T02:08:59;26.08;;;19.02;;
22679;SDS011;11507;44.858;10.374;2022-09-09T02:11:29;25.75;;;18.77;;
22679;SDS011;11507;44.858;10.374;2022-09-09T02:14:08;33.78;;;22.73;;
22679;SDS011;11507;44.858;10.374;2022-09-09T02:16:42;29.38;;;20.73;;
22679;SDS011;11507;44.858;10.374;2022-09-09T02:19:18;39.45;;;26.17;;
22679;SDS011;11507;44.858;10.374;2022-09-09T02:22:18;33.97;;;24.00;;
22679;SDS011;11507;44.858;10.374;2022-09-09T02:24:48;26.80;;;19.65;;
22679;SDS011;11507;44.858;10.374;2022-09-09T02:27:22;24.85;;;18.33;;
22679;SDS011;11507;44.858;10.374;2022-09-09T02:29:49;25.02;;;18.70;;
22679;SDS011;11507;44.858;10.374;2022-09-09T02:32:21;24.67;;;18.30;;
22679;SDS011;11507;44.858;10.374;2022-09-09T02:34:55;35.90;;;24.90;;
22679;SDS011;11507;44.858;10.374;2022-09-09T02:39:56;32.83;;;24.63;;
22679;SDS011;11507;44.858;10.374;2022-09-09T02:42:23;29.83;;;21.40;;
22679;SDS011;11507;44.858;10.374;2022-09-09T02:44:52;30.05;;;21.65;;
22679;SDS011;11507;44.858;10.374;2022-09-09T02:47:25;32.90;;;21.55;;
22679;SDS011;11507;44.858;10.374;2022-09-09T02:52:45;29.15;;;20.13;;
22679;SDS011;11507;44.858;10.374;2022-09-09T02:55:23;32.50;;;21.60;;
22679;SDS011;11507;44.858;10.374;2022-09-09T02:57:52;40.28;;;26.20;;
22679;SDS011;11507;44.858;10.374;2022-09-09T03:00:30;38.35;;;26.27;;
22679;SDS011;11507;44.858;10.374;2022-09-09T03:03:02;32.95;;;23.00;;
22679;SDS011;11507;44.858;10.374;2022-09-09T03:05:30;33.40;;;21.17;;
22679;SDS011;11507;44.858;10.374;2022-09-09T03:07:57;37.85;;;24.42;;
22679;SDS011;11507;44.858;10.374;2022-09-09T03:10:25;30.70;;;22.48;;
22679;SDS011;11507;44.858;10.374;2022-09-09T03:12:51;29.85;;;22.27;;
22679;SDS011;11507;44.858;10.374;2022-09-09T03:15:17;27.63;;;20.17;;
22679;SDS011;11507;44.858;10.374;2022-09-09T03:17:44;28.30;;;19.42;;
22679;SDS011;11507;44.858;10.374;2022-09-09T03:20:10;28.80;;;20.65;;
22679;SDS011;11507;44.858;10.374;2022-09-09T03:22:38;27.75;;;20.42;;
22679;SDS011;11507;44.858;10.374;2022-09-09T03:25:04;27.15;;;19.00;;
22679;SDS011;11507;44.858;10.374;2022-09-09T03:27:33;20.85;;;16.77;;
22679;SDS011;11507;44.858;10.374;2022-09-09T03:29:59;26.73;;;18.85;;
22679;SDS011;11507;44.858;10.374;2022-09-09T03:32:25;25.73;;;18.25;;
22679;SDS011;11507;44.858;10.374;2022-09-09T03:34:53;24.23;;;17.70;;
22679;SDS011;11507;44.858;10.374;2022-09-09T03:37:20;26.85;;;18.35;;
22679;SDS011;11507;44.858;10.374;2022-09-09T03:39:48;23.25;;;16.52;;
22679;SDS011;11507;44.858;10.374;2022-09-09T03:42:15;21.42;;;15.82;;
22679;SDS011;11507;44.858;10.374;2022-09-09T03:44:45;19.23;;;13.50;;
22679;SDS011;11507;44.858;10.374;2022-09-09T03:47:16;19.98;;;13.82;;
22679;SDS011;11507;44.858;10.374;2022-09-09T03:49:44;19.33;;;12.60;;
22679;SDS011;11507;44.858;10.374;2022-09-09T03:52:12;17.60;;;12.63;;
22679;SDS011;11507;44.858;10.374;2022-09-09T03:54:39;19.48;;;13.82;;
22679;SDS011;11507;44.858;10.374;2022-09-09T03:57:06;19.65;;;13.15;;
22679;SDS011;11507;44.858;10.374;2022-09-09T03:59:33;18.10;;;13.38;;
22679;SDS011;11507;44.858;10.374;2022-09-09T04:02:00;21.08;;;13.63;;
22679;SDS011;11507;44.858;10.374;2022-09-09T04:04:28;19.38;;;13.48;;
22679;SDS011;11507;44.858;10.374;2022-09-09T04:06:54;21.42;;;13.93;;
22679;SDS011;11507;44.858;10.374;2022-09-09T04:09:20;17.90;;;13.18;;
22679;SDS011;11507;44.858;10.374;2022-09-09T04:11:48;15.18;;;11.50;;
22679;SDS011;11507;44.858;10.374;2022-09-09T04:14:14;20.20;;;12.70;;
22679;SDS011;11507;44.858;10.374;2022-09-09T04:16:40;18.58;;;11.13;;
22679;SDS011;11507;44.858;10.374;2022-09-09T04:19:11;17.23;;;10.05;;
22679;SDS011;11507;44.858;10.374;2022-09-09T04:21:40;18.50;;;9.48;;
22679;SDS011;11507;44.858;10.374;2022-09-09T04:24:07;13.75;;;8.98;;
22679;SDS011;11507;44.858;10.374;2022-09-09T04:26:34;12.13;;;7.63;;
22679;SDS011;11507;44.858;10.374;2022-09-09T04:29:02;13.30;;;7.75;;
22679;SDS011;11507;44.858;10.374;2022-09-09T04:31:28;13.55;;;7.95;;
22679;SDS011;11507;44.858;10.374;2022-09-09T04:33:55;9.25;;;6.25;;
22679;SDS011;11507;44.858;10.374;2022-09-09T04:36:22;8.02;;;6.28;;
22679;SDS011;11507;44.858;10.374;2022-09-09T04:38:53;10.75;;;6.05;;
22679;SDS011;11507;44.858;10.374;2022-09-09T04:41:19;10.68;;;5.97;;
22679;SDS011;11507;44.858;10.374;2022-09-09T04:43:48;10.05;;;5.70;;
22679;SDS011;11507;44.858;10.374;2022-09-09T04:46:15;10.98;;;5.90;;
22679;SDS011;11507;44.858;10.374;2022-09-09T04:48:42;10.95;;;6.10;;
22679;SDS011;11507;44.858;10.374;2022-09-09T04:51:11;7.93;;;5.88;;
22679;SDS011;11507;44.858;10.374;2022-09-09T04:53:38;11.23;;;5.70;;
22679;SDS011;11507;44.858;10.374;2022-09-09T04:56:07;11.23;;;5.68;;
22679;SDS011;11507;44.858;10.374;2022-09-09T04:58:41;10.93;;;6.57;;
22679;SDS011;11507;44.858;10.374;2022-09-09T05:01:09;11.05;;;6.20;;
22679;SDS011;11507;44.858;10.374;2022-09-09T05:03:39;11.02;;;5.97;;
22679;SDS011;11507;44.858;10.374;2022-09-09T05:06:09;10.10;;;5.93;;
22679;SDS011;11507;44.858;10.374;2022-09-09T05:08:38;9.93;;;6.50;;
22679;SDS011;11507;44.858;10.374;2022-09-09T05:11:15;14.65;;;6.40;;
22679;SDS011;11507;44.858;10.374;2022-09-09T05:13:44;13.35;;;7.25;;
22679;SDS011;11507;44.858;10.374;2022-09-09T05:16:11;10.90;;;7.10;;
22679;SDS011;11507;44.858;10.374;2022-09-09T05:18:39;12.52;;;7.38;;
22679;SDS011;11507;44.858;10.374;2022-09-09T05:21:09;14.30;;;6.65;;
22679;SDS011;11507;44.858;10.374;2022-09-09T05:23:39;10.90;;;6.95;;
22679;SDS011;11507;44.858;10.374;2022-09-09T05:26:06;18.15;;;8.43;;
22679;SDS011;11507;44.858;10.374;2022-09-09T05:28:35;11.68;;;7.63;;
22679;SDS011;11507;44.858;10.374;2022-09-09T05:31:02;14.52;;;8.10;;
22679;SDS011;11507;44.858;10.374;2022-09-09T05:33:33;16.60;;;8.20;;
22679;SDS011;11507;44.858;10.374;2022-09-09T05:36:07;16.05;;;7.97;;
22679;SDS011;11507;44.858;10.374;2022-09-09T05:38:36;14.20;;;8.15;;
22679;SDS011;11507;44.858;10.374;2022-09-09T05:41:03;18.10;;;8.60;;
22679;SDS011;11507;44.858;10.374;2022-09-09T05:43:30;15.93;;;8.95;;
22679;SDS011;11507;44.858;10.374;2022-09-09T05:46:10;17.33;;;9.60;;
22679;SDS011;11507;44.858;10.374;2022-09-09T05:48:39;19.63;;;9.40;;
22679;SDS011;11507;44.858;10.374;2022-09-09T05:51:07;15.13;;;9.40;;
22679;SDS011;11507;44.858;10.374;2022-09-09T05:53:35;15.02;;;8.80;;
22679;SDS011;11507;44.858;10.374;2022-09-09T05:56:07;13.65;;;8.77;;
22679;SDS011;11507;44.858;10.374;2022-09-09T05:58:39;13.05;;;9.05;;
22679;SDS011;11507;44.858;10.374;2022-09-09T06:01:15;14.93;;;10.65;;
22679;SDS011;11507;44.858;10.374;2022-09-09T06:03:45;18.92;;;13.07;;
22679;SDS011;11507;44.858;10.374;2022-09-09T06:06:13;20.95;;;14.15;;
22679;SDS011;11507;44.858;10.374;2022-09-09T06:08:47;21.52;;;13.55;;
22679;SDS011;11507;44.858;10.374;2022-09-09T06:11:25;24.65;;;16.33;;
22679;SDS011;11507;44.858;10.374;2022-09-09T06:13:58;26.50;;;17.77;;
22679;SDS011;11507;44.858;10.374;2022-09-09T06:16:25;24.35;;;15.93;;
22679;SDS011;11507;44.858;10.374;2022-09-09T06:18:53;28.33;;;17.58;;
22679;SDS011;11507;44.858;10.374;2022-09-09T06:21:21;31.50;;;17.95;;
22679;SDS011;11507;44.858;10.374;2022-09-09T06:24:00;27.65;;;17.95;;
22679;SDS011;11507;44.858;10.374;2022-09-09T06:26:29;28.40;;;18.25;;
22679;SDS011;11507;44.858;10.374;2022-09-09T06:29:01;27.83;;;18.38;;
22679;SDS011;11507;44.858;10.374;2022-09-09T06:31:29;23.58;;;17.15;;
22679;SDS011;11507;44.858;10.374;2022-09-09T06:34:05;26.10;;;16.33;;
22679;SDS011;11507;44.858;10.374;2022-09-09T06:36:34;24.42;;;16.58;;
22679;SDS011;11507;44.858;10.374;2022-09-09T06:39:04;24.77;;;16.45;;
22679;SDS011;11507;44.858;10.374;2022-09-09T06:41:32;23.42;;;15.27;;
22679;SDS011;11507;44.858;10.374;2022-09-09T06:44:00;32.28;;;17.55;;
22679;SDS011;11507;44.858;10.374;2022-09-09T06:46:37;33.95;;;19.15;;
22679;SDS011;11507;44.858;10.374;2022-09-09T06:49:05;33.17;;;19.25;;
22679;SDS011;11507;44.858;10.374;2022-09-09T06:51:36;36.05;;;19.48;;
22679;SDS011;11507;44.858;10.374;2022-09-09T06:54:10;38.55;;;20.48;;
22679;SDS011;11507;44.858;10.374;2022-09-09T06:56:38;37.17;;;18.75;;
22679;SDS011;11507;44.858;10.374;2022-09-09T06:59:19;38.80;;;19.70;;
22679;SDS011;11507;44.858;10.374;2022-09-09T07:01:47;35.70;;;19.45;;
22679;SDS011;11507;44.858;10.374;2022-09-09T07:04:14;37.75;;;18.85;;
22679;SDS011;11507;44.858;10.374;2022-09-09T07:06:44;36.05;;;19.55;;
22679;SDS011;11507;44.858;10.374;2022-09-09T07:09:15;37.03;;;18.83;;
22679;SDS011;11507;44.858;10.374;2022-09-09T07:11:45;40.20;;;19.80;;
22679;SDS011;11507;44.858;10.374;2022-09-09T07:14:14;36.20;;;19.75;;
22679;SDS011;11507;44.858;10.374;2022-09-09T07:16:44;40.17;;;20.10;;
22679;SDS011;11507;44.858;10.374;2022-09-09T07:19:13;41.30;;;20.30;;
22679;SDS011;11507;44.858;10.374;2022-09-09T07:21:41;40.40;;;20.58;;
22679;SDS011;11507;44.858;10.374;2022-09-09T07:24:09;48.75;;;22.90;;
22679;SDS011;11507;44.858;10.374;2022-09-09T07:26:37;45.40;;;23.17;;
22679;SDS011;11507;44.858;10.374;2022-09-09T07:29:05;46.25;;;23.70;;
22679;SDS011;11507;44.858;10.374;2022-09-09T07:31:33;53.15;;;24.77;;
22679;SDS011;11507;44.858;10.374;2022-09-09T07:34:03;48.80;;;23.67;;
22679;SDS011;11507;44.858;10.374;2022-09-09T07:36:30;52.38;;;25.98;;
22679;SDS011;11507;44.858;10.374;2022-09-09T07:39:08;48.90;;;25.15;;
22679;SDS011;11507;44.858;10.374;2022-09-09T07:41:44;54.83;;;26.40;;
22679;SDS011;11507;44.858;10.374;2022-09-09T07:44:14;53.63;;;25.83;;
22679;SDS011;11507;44.858;10.374;2022-09-09T07:46:45;46.10;;;25.05;;
22679;SDS011;11507;44.858;10.374;2022-09-09T07:49:14;48.13;;;24.08;;
22679;SDS011;11507;44.858;10.374;2022-09-09T07:51:43;52.75;;;24.45;;
22679;SDS011;11507;44.858;10.374;2022-09-09T07:54:13;47.40;;;25.15;;
22679;SDS011;11507;44.858;10.374;2022-09-09T07:56:43;52.50;;;25.80;;
22679;SDS011;11507;44.858;10.374;2022-09-09T07:59:10;49.83;;;24.15;;
22679;SDS011;11507;44.858;10.374;2022-09-09T08:01:40;48.03;;;24.15;;
22679;SDS011;11507;44.858;10.374;2022-09-09T08:04:16;43.08;;;23.67;;
22679;SDS011;11507;44.858;10.374;2022-09-09T08:06:46;49.97;;;24.25;;
22679;SDS011;11507;44.858;10.374;2022-09-09T08:09:16;47.60;;;23.92;;
22679;SDS011;11507;44.858;10.374;2022-09-09T08:11:45;43.08;;;22.85;;
22679;SDS011;11507;44.858;10.374;2022-09-09T08:14:12;40.45;;;21.20;;
22679;SDS011;11507;44.858;10.374;2022-09-09T08:16:47;42.55;;;22.02;;
22679;SDS011;11507;44.858;10.374;2022-09-09T08:19:18;42.95;;;21.88;;
22679;SDS011;11507;44.858;10.374;2022-09-09T08:21:45;37.55;;;20.95;;
22679;SDS011;11507;44.858;10.374;2022-09-09T08:24:12;33.95;;;20.50;;
22679;SDS011;11507;44.858;10.374;2022-09-09T08:26:45;32.67;;;19.55;;
22679;SDS011;11507;44.858;10.374;2022-09-09T08:29:15;31.10;;;19.55;;
22679;SDS011;11507;44.858;10.374;2022-09-09T08:32:14;29.70;;;18.85;;
22679;SDS011;11507;44.858;10.374;2022-09-09T08:34:35;25.40;;;17.55;;
22679;SDS011;11507;44.858;10.374;2022-09-09T08:37:06;27.02;;;16.58;;
22679;SDS011;11507;44.858;10.374;2022-09-09T08:39:37;27.15;;;16.52;;
22679;SDS011;11507;44.858;10.374;2022-09-09T08:50:27;26.00;;;15.40;;
22679;SDS011;11507;44.858;10.374;2022-09-09T08:53:11;24.00;;;13.85;;
22679;SDS011;11507;44.858;10.374;2022-09-09T08:58:19;27.20;;;16.60;;
22679;SDS011;11507;44.858;10.374;2022-09-09T09:03:55;20.20;;;13.35;;
22679;SDS011;11507;44.858;10.374;2022-09-09T09:06:55;24.38;;;14.57;;
22679;SDS011;11507;44.858;10.374;2022-09-09T09:12:38;22.73;;;14.07;;
22679;SDS011;11507;44.858;10.374;2022-09-09T09:15:15;23.88;;;14.02;;
22679;SDS011;11507;44.858;10.374;2022-09-09T09:17:50;25.00;;;13.95;;
22679;SDS011;11507;44.858;10.374;2022-09-09T09:20:17;28.17;;;14.00;;
22679;SDS011;11507;44.858;10.374;2022-09-09T09:22:57;25.40;;;13.05;;
22679;SDS011;11507;44.858;10.374;2022-09-09T09:25:34;22.80;;;14.07;;
22679;SDS011;11507;44.858;10.374;2022-09-09T09:28:15;22.02;;;13.13;;
22679;SDS011;11507;44.858;10.374;2022-09-09T09:30:58;21.55;;;12.68;;
22679;SDS011;11507;44.858;10.374;2022-09-09T09:33:48;19.58;;;12.40;;
22679;SDS011;11507;44.858;10.374;2022-09-09T09:36:24;21.60;;;13.23;;
22679;SDS011;11507;44.858;10.374;2022-09-09T09:39:00;18.45;;;10.82;;
22679;SDS011;11507;44.858;10.374;2022-09-09T09:44:00;16.20;;;10.45;;
22679;SDS011;11507;44.858;10.374;2022-09-09T09:46:28;15.02;;;10.10;;
22679;SDS011;11507;44.858;10.374;2022-09-09T09:49:08;19.30;;;11.23;;
22679;SDS011;11507;44.858;10.374;2022-09-09T09:51:37;19.80;;;12.30;;
22679;SDS011;11507;44.858;10.374;2022-09-09T09:56:43;19.98;;;11.30;;
22679;SDS011;11507;44.858;10.374;2022-09-09T09:59:21;16.42;;;10.77;;
22679;SDS011;11507;44.858;10.374;2022-09-09T10:01:53;17.52;;;10.10;;
22679;SDS011;11507;44.858;10.374;2022-09-09T10:04:21;20.05;;;11.25;;
22679;SDS011;11507;44.858;10.374;2022-09-09T10:06:53;19.55;;;12.88;;
22679;SDS011;11507;44.858;10.374;2022-09-09T10:14:29;21.95;;;14.90;;
22679;SDS011;11507;44.858;10.374;2022-09-09T10:23:09;16.83;;;11.32;;
22679;SDS011;11507;44.858;10.374;2022-09-09T10:26:21;15.82;;;8.57;;
22679;SDS011;11507;44.858;10.374;2022-09-09T10:36:28;14.15;;;7.22;;
22679;SDS011;11507;44.858;10.374;2022-09-09T10:39:00;13.35;;;7.55;;
22679;SDS011;11507;44.858;10.374;2022-09-09T10:55:39;8.90;;;4.25;;
22679;SDS011;11507;44.858;10.374;2022-09-09T10:58:23;7.65;;;3.88;;
22679;SDS011;11507;44.858;10.374;2022-09-09T11:01:01;7.35;;;3.95;;
22679;SDS011;11507;44.858;10.374;2022-09-09T11:06:06;6.45;;;3.70;;
22679;SDS011;11507;44.858;10.374;2022-09-09T11:08:38;6.95;;;3.33;;
22679;SDS011;11507;44.858;10.374;2022-09-09T11:19:31;5.15;;;2.92;;
22679;SDS011;11507;44.858;10.374;2022-09-09T11:28:11;6.97;;;3.20;;
22679;SDS011;11507;44.858;10.374;2022-09-09T11:38:45;6.45;;;2.60;;
22679;SDS011;11507;44.858;10.374;2022-09-09T11:41:18;4.85;;;2.47;;
22679;SDS011;11507;44.858;10.374;2022-09-09T11:43:47;7.40;;;3.28;;
22679;SDS011;11507;44.858;10.374;2022-09-09T11:46:17;9.38;;;2.80;;
22679;SDS011;11507;44.858;10.374;2022-09-09T11:48:57;6.43;;;3.03;;
22679;SDS011;11507;44.858;10.374;2022-09-09T11:51:26;6.53;;;2.40;;
22679;SDS011;11507;44.858;10.374;2022-09-09T11:53:55;6.80;;;2.30;;
22679;SDS011;11507;44.858;10.374;2022-09-09T11:59:19;5.28;;;2.10;;
22679;SDS011;11507;44.858;10.374;2022-09-09T12:01:45;5.40;;;2.60;;
22679;SDS011;11507;44.858;10.374;2022-09-09T12:09:46;5.93;;;2.47;;
22679;SDS011;11507;44.858;10.374;2022-09-09T12:12:25;5.63;;;2.58;;
22679;SDS011;11507;44.858;10.374;2022-09-09T12:17:42;6.82;;;2.22;;
22679;SDS011;11507;44.858;10.374;2022-09-09T12:28:23;6.25;;;2.10;;
22679;SDS011;11507;44.858;10.374;2022-09-09T12:31:18;5.75;;;2.30;;
22679;SDS011;11507;44.858;10.374;2022-09-09T12:33:46;5.05;;;2.05;;
22679;SDS011;11507;44.858;10.374;2022-09-09T12:36:13;5.78;;;1.90;;
22679;SDS011;11507;44.858;10.374;2022-09-09T12:38:44;4.95;;;1.77;;
22679;SDS011;11507;44.858;10.374;2022-09-09T12:41:21;6.45;;;2.00;;
22679;SDS011;11507;44.858;10.374;2022-09-09T12:43:49;6.25;;;2.03;;
22679;SDS011;11507;44.858;10.374;2022-09-09T12:46:29;5.70;;;2.10;;
22679;SDS011;11507;44.858;10.374;2022-09-09T12:49:03;6.60;;;2.28;;
22679;SDS011;11507;44.858;10.374;2022-09-09T12:51:32;8.10;;;2.10;;
22679;SDS011;11507;44.858;10.374;2022-09-09T12:54:00;5.35;;;2.13;;
22679;SDS011;11507;44.858;10.374;2022-09-09T12:56:28;6.03;;;1.73;;
22679;SDS011;11507;44.858;10.374;2022-09-09T12:58:56;4.93;;;1.77;;
22679;SDS011;11507;44.858;10.374;2022-09-09T13:01:28;4.10;;;1.60;;
22679;SDS011;11507;44.858;10.374;2022-09-09T13:04:01;4.30;;;1.90;;
22679;SDS011;11507;44.858;10.374;2022-09-09T13:06:28;5.45;;;1.92;;
22679;SDS011;11507;44.858;10.374;2022-09-09T13:08:56;6.55;;;2.00;;
22679;SDS011;11507;44.858;10.374;2022-09-09T13:11:29;8.32;;;2.10;;
22679;SDS011;11507;44.858;10.374;2022-09-09T13:14:01;6.05;;;1.92;;
22679;SDS011;11507;44.858;10.374;2022-09-09T13:16:32;6.63;;;2.00;;
22679;SDS011;11507;44.858;10.374;2022-09-09T13:19:01;3.97;;;1.60;;
22679;SDS011;11507;44.858;10.374;2022-09-09T13:21:41;3.70;;;1.50;;
22679;SDS011;11507;44.858;10.374;2022-09-09T13:27:26;5.50;;;1.60;;
22679;SDS011;11507;44.858;10.374;2022-09-09T13:29:55;5.57;;;1.67;;
22679;SDS011;11507;44.858;10.374;2022-09-09T13:32:23;4.03;;;1.77;;
22679;SDS011;11507;44.858;10.374;2022-09-09T13:34:57;4.18;;;1.77;;
22679;SDS011;11507;44.858;10.374;2022-09-09T13:40:03;4.72;;;1.83;;
22679;SDS011;11507;44.858;10.374;2022-09-09T13:42:35;4.82;;;1.75;;
22679;SDS011;11507;44.858;10.374;2022-09-09T13:45:28;6.20;;;1.80;;
22679;SDS011;11507;44.858;10.374;2022-09-09T13:47:54;3.92;;;1.58;;
22679;SDS011;11507;44.858;10.374;2022-09-09T13:50:27;3.75;;;1.55;;
22679;SDS011;11507;44.858;10.374;2022-09-09T13:52:55;4.47;;;1.80;;
22679;SDS011;11507;44.858;10.374;2022-09-09T13:55:26;4.20;;;1.70;;
22679;SDS011;11507;44.858;10.374;2022-09-09T14:00:26;3.63;;;1.50;;
22679;SDS011;11507;44.858;10.374;2022-09-09T14:02:54;4.38;;;1.50;;
22679;SDS011;11507;44.858;10.374;2022-09-09T14:05:22;4.80;;;1.95;;
22679;SDS011;11507;44.858;10.374;2022-09-09T14:07:49;6.63;;;1.80;;
22679;SDS011;11507;44.858;10.374;2022-09-09T14:10:15;4.85;;;1.63;;
22679;SDS011;11507;44.858;10.374;2022-09-09T14:12:41;9.50;;;1.80;;
22679;SDS011;11507;44.858;10.374;2022-09-09T14:15:07;6.15;;;2.05;;
22679;SDS011;11507;44.858;10.374;2022-09-09T14:17:37;6.60;;;1.70;;
22679;SDS011;11507;44.858;10.374;2022-09-09T14:20:05;4.53;;;1.35;;
22679;SDS011;11507;44.858;10.374;2022-09-09T14:22:35;5.53;;;1.50;;
22679;SDS011;11507;44.858;10.374;2022-09-09T14:25:02;5.53;;;1.50;;
22679;SDS011;11507;44.858;10.374;2022-09-09T14:27:28;3.85;;;1.50;;
22679;SDS011;11507;44.858;10.374;2022-09-09T14:29:55;6.93;;;1.90;;
22679;SDS011;11507;44.858;10.374;2022-09-09T14:32:22;3.83;;;1.60;;
22679;SDS011;11507;44.858;10.374;2022-09-09T14:34:48;3.63;;;1.42;;
22679;SDS011;11507;44.858;10.374;2022-09-09T14:37:17;4.93;;;1.60;;
22679;SDS011;11507;44.858;10.374;2022-09-09T14:39:45;5.05;;;1.40;;
22679;SDS011;11507;44.858;10.374;2022-09-09T14:42:12;6.68;;;1.55;;
22679;SDS011;11507;44.858;10.374;2022-09-09T14:44:38;4.43;;;1.60;;
22679;SDS011;11507;44.858;10.374;2022-09-09T14:47:07;17.20;;;2.90;;
22679;SDS011;11507;44.858;10.374;2022-09-09T14:49:34;6.93;;;1.50;;
22679;SDS011;11507;44.858;10.374;2022-09-09T14:52:01;6.32;;;1.63;;
22679;SDS011;11507;44.858;10.374;2022-09-09T14:54:28;7.47;;;1.52;;
22679;SDS011;11507;44.858;10.374;2022-09-09T14:56:54;4.70;;;1.70;;
22679;SDS011;11507;44.858;10.374;2022-09-09T14:59:22;4.35;;;1.67;;
22679;SDS011;11507;44.858;10.374;2022-09-09T15:01:49;5.40;;;1.70;;
22679;SDS011;11507;44.858;10.374;2022-09-09T15:04:15;7.63;;;1.80;;
22679;SDS011;11507;44.858;10.374;2022-09-09T15:06:42;4.32;;;1.50;;
22679;SDS011;11507;44.858;10.374;2022-09-09T15:09:14;3.15;;;1.60;;
22679;SDS011;11507;44.858;10.374;2022-09-09T15:11:40;5.90;;;1.65;;
22679;SDS011;11507;44.858;10.374;2022-09-09T15:14:07;5.10;;;1.60;;
22679;SDS011;11507;44.858;10.374;2022-09-09T15:16:34;6.43;;;1.80;;
22679;SDS011;11507;44.858;10.374;2022-09-09T15:19:00;5.95;;;1.75;;
22679;SDS011;11507;44.858;10.374;2022-09-09T15:21:28;4.97;;;1.65;;
22679;SDS011;11507;44.858;10.374;2022-09-09T15:23:57;5.25;;;1.70;;
22679;SDS011;11507;44.858;10.374;2022-09-09T15:26:24;4.00;;;1.67;;
22679;SDS011;11507;44.858;10.374;2022-09-09T15:28:51;4.32;;;1.70;;
22679;SDS011;11507;44.858;10.374;2022-09-09T15:31:18;7.05;;;2.03;;
22679;SDS011;11507;44.858;10.374;2022-09-09T15:33:55;4.90;;;2.08;;
22679;SDS011;11507;44.858;10.374;2022-09-09T15:39:15;7.25;;;1.98;;
22679;SDS011;11507;44.858;10.374;2022-09-09T15:41:42;5.90;;;1.75;;
22679;SDS011;11507;44.858;10.374;2022-09-09T15:44:10;3.42;;;1.48;;
22679;SDS011;11507;44.858;10.374;2022-09-09T15:46:40;5.68;;;1.80;;
22679;SDS011;11507;44.858;10.374;2022-09-09T15:49:09;6.57;;;2.10;;
22679;SDS011;11507;44.858;10.374;2022-09-09T15:51:38;8.18;;;1.92;;
22679;SDS011;11507;44.858;10.374;2022-09-09T15:54:06;7.38;;;1.80;;
22679;SDS011;11507;44.858;10.374;2022-09-09T15:56:32;4.35;;;1.70;;
22679;SDS011;11507;44.858;10.374;2022-09-09T15:58:58;5.63;;;1.98;;
22679;SDS011;11507;44.858;10.374;2022-09-09T16:01:25;7.85;;;2.10;;
22679;SDS011;11507;44.858;10.374;2022-09-09T16:03:52;3.78;;;1.60;;
22679;SDS011;11507;44.858;10.374;2022-09-09T16:06:20;5.80;;;1.90;;
22679;SDS011;11507;44.858;10.374;2022-09-09T16:08:48;5.68;;;1.67;;
22679;SDS011;11507;44.858;10.374;2022-09-09T16:11:17;5.55;;;2.00;;
22679;SDS011;11507;44.858;10.374;2022-09-09T16:13:52;5.57;;;1.88;;
22679;SDS011;11507;44.858;10.374;2022-09-09T16:16:20;6.60;;;1.77;;
22679;SDS011;11507;44.858;10.374;2022-09-09T16:18:48;4.07;;;1.60;;
22679;SDS011;11507;44.858;10.374;2022-09-09T16:21:21;6.63;;;2.00;;
22679;SDS011;11507;44.858;10.374;2022-09-09T16:23:56;7.70;;;1.85;;
22679;SDS011;11507;44.858;10.374;2022-09-09T16:26:26;3.65;;;1.80;;
22679;SDS011;11507;44.858;10.374;2022-09-09T16:28:53;4.43;;;1.85;;
22679;SDS011;11507;44.858;10.374;2022-09-09T16:31:26;6.45;;;1.80;;
22679;SDS011;11507;44.858;10.374;2022-09-09T16:33:56;6.38;;;2.15;;
22679;SDS011;11507;44.858;10.374;2022-09-09T16:36:23;5.35;;;1.90;;
22679;SDS011;11507;44.858;10.374;2022-09-09T16:38:54;5.30;;;2.03;;
22679;SDS011;11507;44.858;10.374;2022-09-09T16:41:20;9.38;;;2.10;;
22679;SDS011;11507;44.858;10.374;2022-09-09T16:43:51;5.57;;;1.88;;
22679;SDS011;11507;44.858;10.374;2022-09-09T16:46:19;6.22;;;1.63;;
22679;SDS011;11507;44.858;10.374;2022-09-09T16:48:46;7.13;;;2.00;;
22679;SDS011;11507;44.858;10.374;2022-09-09T16:51:18;10.27;;;2.42;;
22679;SDS011;11507;44.858;10.374;2022-09-09T16:53:49;5.07;;;1.92;;
22679;SDS011;11507;44.858;10.374;2022-09-09T16:56:17;4.68;;;1.88;;
22679;SDS011;11507;44.858;10.374;2022-09-09T16:58:50;8.70;;;3.05;;
22679;SDS011;11507;44.858;10.374;2022-09-09T17:01:21;7.18;;;3.50;;
22679;SDS011;11507;44.858;10.374;2022-09-09T17:03:53;17.73;;;4.43;;
22679;SDS011;11507;44.858;10.374;2022-09-09T17:06:20;11.90;;;4.05;;
22679;SDS011;11507;44.858;10.374;2022-09-09T17:08:47;12.85;;;4.20;;
22679;SDS011;11507;44.858;10.374;2022-09-09T17:11:17;12.77;;;4.30;;
22679;SDS011;11507;44.858;10.374;2022-09-09T17:13:51;9.07;;;4.20;;
22679;SDS011;11507;44.858;10.374;2022-09-09T17:16:18;9.10;;;3.70;;
22679;SDS011;11507;44.858;10.374;2022-09-09T17:18:47;8.40;;;3.55;;
22679;SDS011;11507;44.858;10.374;2022-09-09T17:21:19;10.80;;;3.70;;